sensor_id;sensor_type;location;lat;lon;timestamp;pressure;altitude;pressure_sealevel;temperature;humidity
50682;BME280;36779;52.168;20.878;2023-08-06T00:00:16;99386.98;;;19.11;68.23
50682;BME280;36779;52.168;20.878;2023-08-06T00:03:04;99394.20;;;19.13;68.47
50682;BME280;36779;52.168;20.878;2023-08-06T00:05:34;99397.38;;;19.21;68.51
50682;BME280;36779;52.168;20.878;2023-08-06T00:08:04;99408.98;;;19.29;68.54
50682;BME280;36779;52.168;20.878;2023-08-06T00:10:32;99411.65;;;19.33;68.57
50682;BME280;36779;52.168;20.878;2023-08-06T00:12:59;99408.23;;;19.38;68.48
50682;BME280;36779;52.168;20.878;2023-08-06T00:15:27;99406.83;;;19.33;68.40
50682;BME280;36779;52.168;20.878;2023-08-06T00:17:55;99400.67;;;19.30;68.36
50682;BME280;36779;52.168;20.878;2023-08-06T00:20:23;99397.38;;;19.27;68.37
50682;BME280;36779;52.168;20.878;2023-08-06T00:22:50;99383.84;;;19.23;68.37
50682;BME280;36779;52.168;20.878;2023-08-06T00:25:18;99375.39;;;19.15;68.33
50682;BME280;36779;52.168;20.878;2023-08-06T00:27:47;99379.20;;;19.11;68.34
50682;BME280;36779;52.168;20.878;2023-08-06T00:30:15;99378.21;;;19.07;68.28
50682;BME280;36779;52.168;20.878;2023-08-06T00:32:43;99366.20;;;19.03;68.33
50682;BME280;36779;52.168;20.878;2023-08-06T00:35:12;99357.88;;;19.00;68.46
50682;BME280;36779;52.168;20.878;2023-08-06T00:37:40;99343.22;;;18.96;68.38
50682;BME280;36779;52.168;20.878;2023-08-06T00:40:08;99335.88;;;18.90;68.33
50682;BME280;36779;52.168;20.878;2023-08-06T00:42:36;99332.38;;;18.85;68.50
50682;BME280;36779;52.168;20.878;2023-08-06T00:45:04;99333.88;;;18.81;68.50
50682;BME280;36779;52.168;20.878;2023-08-06T00:47:32;99329.13;;;18.78;68.44
50682;BME280;36779;52.168;20.878;2023-08-06T00:50:00;99317.26;;;18.75;68.56
50682;BME280;36779;52.168;20.878;2023-08-06T00:52:28;99310.09;;;18.73;68.48
50682;BME280;36779;52.168;20.878;2023-08-06T00:54:56;99295.69;;;18.72;68.63
50682;BME280;36779;52.168;20.878;2023-08-06T00:57:24;99279.93;;;18.70;68.70
50682;BME280;36779;52.168;20.878;2023-08-06T00:59:52;99274.23;;;18.69;68.71
50682;BME280;36779;52.168;20.878;2023-08-06T01:02:21;99265.48;;;18.66;68.70
50682;BME280;36779;52.168;20.878;2023-08-06T01:04:49;99259.84;;;18.64;68.71
50682;BME280;36779;52.168;20.878;2023-08-06T01:07:21;99251.16;;;18.62;68.85
50682;BME280;36779;52.168;20.878;2023-08-06T01:09:56;99245.54;;;18.61;68.79
50682;BME280;36779;52.168;20.878;2023-08-06T01:12:29;99239.21;;;18.60;68.71
50682;BME280;36779;52.168;20.878;2023-08-06T01:15:02;99230.81;;;18.59;68.81
50682;BME280;36779;52.168;20.878;2023-08-06T01:17:33;99218.60;;;18.57;68.86
50682;BME280;36779;52.168;20.878;2023-08-06T01:20:01;99201.73;;;18.56;68.90
50682;BME280;36779;52.168;20.878;2023-08-06T01:22:30;99184.46;;;18.56;68.89
50682;BME280;36779;52.168;20.878;2023-08-06T01:24:57;99169.80;;;18.54;68.94
50682;BME280;36779;52.168;20.878;2023-08-06T01:27:26;99159.13;;;18.52;69.08
50682;BME280;36779;52.168;20.878;2023-08-06T01:29:59;99151.83;;;18.51;69.10
50682;BME280;36779;52.168;20.878;2023-08-06T01:32:30;99145.83;;;18.50;69.17
50682;BME280;36779;52.168;20.878;2023-08-06T01:35:00;99144.69;;;18.49;69.18
50682;BME280;36779;52.168;20.878;2023-08-06T01:37:29;99140.02;;;18.49;69.17
50682;BME280;36779;52.168;20.878;2023-08-06T01:39:57;99131.42;;;18.51;69.27
50682;BME280;36779;52.168;20.878;2023-08-06T01:42:25;99126.54;;;18.52;69.24
50682;BME280;36779;52.168;20.878;2023-08-06T01:44:53;99121.02;;;18.54;69.32
50682;BME280;36779;52.168;20.878;2023-08-06T01:47:21;99118.52;;;18.56;69.30
50682;BME280;36779;52.168;20.878;2023-08-06T01:49:48;99114.73;;;18.59;69.36
50682;BME280;36779;52.168;20.878;2023-08-06T01:52:18;99115.23;;;18.61;69.29
50682;BME280;36779;52.168;20.878;2023-08-06T01:54:46;99113.98;;;18.63;69.51
50682;BME280;36779;52.168;20.878;2023-08-06T01:57:14;99112.82;;;18.65;69.40
50682;BME280;36779;52.168;20.878;2023-08-06T01:59:42;99110.70;;;18.68;69.46
50682;BME280;36779;52.168;20.878;2023-08-06T02:02:10;99105.84;;;18.68;69.46
50682;BME280;36779;52.168;20.878;2023-08-06T02:04:37;99102.04;;;18.70;69.55
50682;BME280;36779;52.168;20.878;2023-08-06T02:07:05;99099.45;;;18.70;69.39
50682;BME280;36779;52.168;20.878;2023-08-06T02:09:33;99101.88;;;18.70;69.39
50682;BME280;36779;52.168;20.878;2023-08-06T02:12:02;99102.64;;;18.70;69.44
50682;BME280;36779;52.168;20.878;2023-08-06T02:14:30;99091.92;;;18.71;69.48
50682;BME280;36779;52.168;20.878;2023-08-06T02:17:00;99081.33;;;18.71;69.51
50682;BME280;36779;52.168;20.878;2023-08-06T02:19:28;99078.08;;;18.70;69.56
50682;BME280;36779;52.168;20.878;2023-08-06T02:21:56;99079.20;;;18.70;69.62
50682;BME280;36779;52.168;20.878;2023-08-06T02:24:24;99074.02;;;18.69;69.51
50682;BME280;36779;52.168;20.878;2023-08-06T02:26:53;99072.85;;;18.70;69.46
50682;BME280;36779;52.168;20.878;2023-08-06T02:29:23;99078.04;;;18.70;69.68
50682;BME280;36779;52.168;20.878;2023-08-06T02:31:51;99087.55;;;18.71;69.60
50682;BME280;36779;52.168;20.878;2023-08-06T02:34:20;99085.27;;;18.72;69.74
50682;BME280;36779;52.168;20.878;2023-08-06T02:36:47;99082.16;;;18.74;69.70
50682;BME280;36779;52.168;20.878;2023-08-06T02:39:15;99074.61;;;18.75;69.62
50682;BME280;36779;52.168;20.878;2023-08-06T02:41:43;99075.45;;;18.76;69.67
50682;BME280;36779;52.168;20.878;2023-08-06T02:44:11;99077.44;;;18.79;69.80
50682;BME280;36779;52.168;20.878;2023-08-06T02:46:38;99076.59;;;18.84;69.60
50682;BME280;36779;52.168;20.878;2023-08-06T02:49:06;99073.16;;;18.86;69.72
50682;BME280;36779;52.168;20.878;2023-08-06T02:51:34;99064.98;;;18.88;69.67
50682;BME280;36779;52.168;20.878;2023-08-06T02:54:01;99059.55;;;18.90;69.80
50682;BME280;36779;52.168;20.878;2023-08-06T02:56:30;99047.30;;;18.91;69.75
50682;BME280;36779;52.168;20.878;2023-08-06T02:59:04;99040.77;;;18.91;69.72
50682;BME280;36779;52.168;20.878;2023-08-06T03:01:41;99036.96;;;18.89;69.69
50682;BME280;36779;52.168;20.878;2023-08-06T03:04:16;99034.77;;;18.90;69.68
50682;BME280;36779;52.168;20.878;2023-08-06T03:06:45;99028.68;;;18.92;69.71
50682;BME280;36779;52.168;20.878;2023-08-06T03:09:16;99025.73;;;18.93;69.80
50682;BME280;36779;52.168;20.878;2023-08-06T03:11:44;99018.92;;;18.96;69.86
50682;BME280;36779;52.168;20.878;2023-08-06T03:14:14;99010.68;;;18.98;69.77
50682;BME280;36779;52.168;20.878;2023-08-06T03:16:42;99001.82;;;18.98;69.92
50682;BME280;36779;52.168;20.878;2023-08-06T03:19:10;98996.38;;;18.98;69.85
50682;BME280;36779;52.168;20.878;2023-08-06T03:21:39;98990.59;;;18.98;69.84
50682;BME280;36779;52.168;20.878;2023-08-06T03:24:07;98980.92;;;18.97;69.79
50682;BME280;36779;52.168;20.878;2023-08-06T03:26:35;98978.48;;;18.98;69.87
50682;BME280;36779;52.168;20.878;2023-08-06T03:29:03;98971.26;;;18.98;69.88
50682;BME280;36779;52.168;20.878;2023-08-06T03:31:33;98960.95;;;18.98;69.83
50682;BME280;36779;52.168;20.878;2023-08-06T03:34:02;98956.86;;;18.99;69.97
50682;BME280;36779;52.168;20.878;2023-08-06T03:36:30;98953.58;;;19.02;69.97
50682;BME280;36779;52.168;20.878;2023-08-06T03:38:58;98949.31;;;19.01;69.86
50682;BME280;36779;52.168;20.878;2023-08-06T03:41:26;98943.38;;;19.01;69.87
50682;BME280;36779;52.168;20.878;2023-08-06T03:43:54;98934.58;;;19.02;70.04
50682;BME280;36779;52.168;20.878;2023-08-06T03:46:24;98925.05;;;19.03;70.01
50682;BME280;36779;52.168;20.878;2023-08-06T03:48:53;98921.74;;;19.02;70.03
50682;BME280;36779;52.168;20.878;2023-08-06T03:51:21;98913.21;;;19.03;70.00
50682;BME280;36779;52.168;20.878;2023-08-06T03:53:49;98908.41;;;19.05;70.26
50682;BME280;36779;52.168;20.878;2023-08-06T03:56:17;98907.74;;;19.07;70.19
50682;BME280;36779;52.168;20.878;2023-08-06T03:58:45;98903.00;;;19.09;70.26
50682;BME280;36779;52.168;20.878;2023-08-06T04:01:13;98892.73;;;19.12;70.15
50682;BME280;36779;52.168;20.878;2023-08-06T04:03:44;98889.88;;;19.14;70.11
50682;BME280;36779;52.168;20.878;2023-08-06T04:06:12;98884.21;;;19.15;70.29
50682;BME280;36779;52.168;20.878;2023-08-06T04:08:40;98878.89;;;19.17;70.15
50682;BME280;36779;52.168;20.878;2023-08-06T04:11:08;98874.80;;;19.19;70.10
50682;BME280;36779;52.168;20.878;2023-08-06T04:13:36;98873.10;;;19.20;70.12
50682;BME280;36779;52.168;20.878;2023-08-06T04:16:04;98867.05;;;19.20;70.33
50682;BME280;36779;52.168;20.878;2023-08-06T04:18:33;98859.02;;;19.24;70.34
50682;BME280;36779;52.168;20.878;2023-08-06T04:21:02;98854.15;;;19.28;70.36
50682;BME280;36779;52.168;20.878;2023-08-06T04:23:30;98850.17;;;19.30;70.24
50682;BME280;36779;52.168;20.878;2023-08-06T04:26:02;98841.59;;;19.31;70.36
50682;BME280;36779;52.168;20.878;2023-08-06T04:28:32;98843.27;;;19.33;70.36
50682;BME280;36779;52.168;20.878;2023-08-06T04:31:00;98837.37;;;19.36;70.37
50682;BME280;36779;52.168;20.878;2023-08-06T04:33:33;98843.59;;;19.37;70.31
50682;BME280;36779;52.168;20.878;2023-08-06T04:36:05;98839.48;;;19.38;70.35
50682;BME280;36779;52.168;20.878;2023-08-06T04:38:34;98836.59;;;19.40;70.55
50682;BME280;36779;52.168;20.878;2023-08-06T04:41:02;98829.61;;;19.45;70.56
50682;BME280;36779;52.168;20.878;2023-08-06T04:43:30;98825.97;;;19.50;70.55
50682;BME280;36779;52.168;20.878;2023-08-06T04:45:59;98825.09;;;19.55;70.57
50682;BME280;36779;52.168;20.878;2023-08-06T04:48:26;98822.41;;;19.63;70.54
50682;BME280;36779;52.168;20.878;2023-08-06T04:50:54;98821.48;;;19.67;70.44
50682;BME280;36779;52.168;20.878;2023-08-06T04:53:22;98818.20;;;19.71;70.53
50682;BME280;36779;52.168;20.878;2023-08-06T04:55:50;98813.72;;;19.78;70.68
50682;BME280;36779;52.168;20.878;2023-08-06T04:58:17;98811.59;;;19.85;70.64
50682;BME280;36779;52.168;20.878;2023-08-06T05:00:45;98811.80;;;19.92;70.74
50682;BME280;36779;52.168;20.878;2023-08-06T05:03:16;98810.13;;;20.02;70.66
50682;BME280;36779;52.168;20.878;2023-08-06T05:05:43;98811.80;;;20.11;70.64
50682;BME280;36779;52.168;20.878;2023-08-06T05:08:14;98806.70;;;20.20;70.60
50682;BME280;36779;52.168;20.878;2023-08-06T05:10:43;98804.73;;;20.32;70.78
50682;BME280;36779;52.168;20.878;2023-08-06T05:13:11;98798.86;;;20.46;70.51
50682;BME280;36779;52.168;20.878;2023-08-06T05:15:39;98797.89;;;20.56;70.71
50682;BME280;36779;52.168;20.878;2023-08-06T05:18:09;98794.98;;;20.83;71.01
50682;BME280;36779;52.168;20.878;2023-08-06T05:20:37;98792.15;;;21.03;70.87
50682;BME280;36779;52.168;20.878;2023-08-06T05:23:05;98789.47;;;21.34;71.12
50682;BME280;36779;52.168;20.878;2023-08-06T05:25:34;98783.61;;;21.68;71.28
50682;BME280;36779;52.168;20.878;2023-08-06T05:28:02;98775.30;;;21.94;70.88
50682;BME280;36779;52.168;20.878;2023-08-06T05:30:30;98774.23;;;22.28;71.10
50682;BME280;36779;52.168;20.878;2023-08-06T05:32:58;98772.48;;;22.54;70.74
50682;BME280;36779;52.168;20.878;2023-08-06T05:35:26;98768.21;;;22.69;70.63
50682;BME280;36779;52.168;20.878;2023-08-06T05:37:54;98766.14;;;22.91;70.77
50682;BME280;36779;52.168;20.878;2023-08-06T05:40:21;98761.83;;;23.03;70.52
50682;BME280;36779;52.168;20.878;2023-08-06T05:42:49;98754.25;;;23.13;70.32
50682;BME280;36779;52.168;20.878;2023-08-06T05:45:17;98751.65;;;23.12;69.93
50682;BME280;36779;52.168;20.878;2023-08-06T05:47:46;98748.02;;;23.18;69.93
50682;BME280;36779;52.168;20.878;2023-08-06T05:50:15;98741.69;;;23.32;69.96
50682;BME280;36779;52.168;20.878;2023-08-06T05:52:44;98738.44;;;23.43;69.76
50682;BME280;36779;52.168;20.878;2023-08-06T05:55:12;98733.52;;;23.51;69.68
50682;BME280;36779;52.168;20.878;2023-08-06T05:57:40;98730.96;;;23.63;69.65
50682;BME280;36779;52.168;20.878;2023-08-06T06:00:09;98733.38;;;23.73;69.61
50682;BME280;36779;52.168;20.878;2023-08-06T06:02:40;98732.30;;;23.78;69.46
50682;BME280;36779;52.168;20.878;2023-08-06T06:05:11;98732.56;;;23.84;69.45
50682;BME280;36779;52.168;20.878;2023-08-06T06:07:39;98727.42;;;23.89;69.35
50682;BME280;36779;52.168;20.878;2023-08-06T06:10:08;98729.89;;;23.95;69.37
50682;BME280;36779;52.168;20.878;2023-08-06T06:12:37;98727.54;;;23.94;69.15
50682;BME280;36779;52.168;20.878;2023-08-06T06:15:06;98721.86;;;23.96;69.15
50682;BME280;36779;52.168;20.878;2023-08-06T06:17:37;98719.99;;;24.02;69.18
50682;BME280;36779;52.168;20.878;2023-08-06T06:20:06;98719.73;;;24.01;69.11
50682;BME280;36779;52.168;20.878;2023-08-06T06:22:34;98710.64;;;24.01;69.05
50682;BME280;36779;52.168;20.878;2023-08-06T06:25:02;98707.53;;;24.03;69.03
50682;BME280;36779;52.168;20.878;2023-08-06T06:27:30;98700.33;;;24.04;68.98
50682;BME280;36779;52.168;20.878;2023-08-06T06:29:57;98700.01;;;24.03;68.82
50682;BME280;36779;52.168;20.878;2023-08-06T06:32:25;98697.91;;;23.99;68.85
50682;BME280;36779;52.168;20.878;2023-08-06T06:34:53;98695.25;;;23.95;68.81
50682;BME280;36779;52.168;20.878;2023-08-06T06:37:21;98692.13;;;23.93;68.77
50682;BME280;36779;52.168;20.878;2023-08-06T06:39:49;98693.11;;;23.92;68.92
50682;BME280;36779;52.168;20.878;2023-08-06T06:42:17;98688.20;;;23.94;68.86
50682;BME280;36779;52.168;20.878;2023-08-06T06:44:45;98686.92;;;24.00;68.97
50682;BME280;36779;52.168;20.878;2023-08-06T06:47:14;98681.33;;;24.04;68.87
50682;BME280;36779;52.168;20.878;2023-08-06T06:49:42;98680.05;;;24.10;68.81
50682;BME280;36779;52.168;20.878;2023-08-06T06:52:09;98674.60;;;24.14;68.65
50682;BME280;36779;52.168;20.878;2023-08-06T06:54:38;98674.26;;;24.16;68.66
50682;BME280;36779;52.168;20.878;2023-08-06T06:57:06;98670.72;;;24.19;68.52
50682;BME280;36779;52.168;20.878;2023-08-06T06:59:33;98670.50;;;24.23;68.63
50682;BME280;36779;52.168;20.878;2023-08-06T07:02:01;98671.44;;;24.31;68.60
50682;BME280;36779;52.168;20.878;2023-08-06T07:04:29;98672.83;;;24.42;68.69
50682;BME280;36779;52.168;20.878;2023-08-06T07:06:57;98676.49;;;24.48;68.51
50682;BME280;36779;52.168;20.878;2023-08-06T07:09:25;98681.96;;;24.51;68.48
50682;BME280;36779;52.168;20.878;2023-08-06T07:11:56;98683.48;;;24.55;68.42
50682;BME280;36779;52.168;20.878;2023-08-06T07:14:24;98684.80;;;24.61;68.44
50682;BME280;36779;52.168;20.878;2023-08-06T07:16:52;98680.13;;;24.71;68.38
50682;BME280;36779;52.168;20.878;2023-08-06T07:19:19;98682.81;;;24.67;68.04
50682;BME280;36779;52.168;20.878;2023-08-06T07:21:50;98680.89;;;24.68;68.15
50682;BME280;36779;52.168;20.878;2023-08-06T07:24:19;98676.27;;;24.74;68.15
50682;BME280;36779;52.168;20.878;2023-08-06T07:26:49;98672.64;;;24.83;68.06
50682;BME280;36779;52.168;20.878;2023-08-06T07:29:17;98672.80;;;24.87;67.83
50682;BME280;36779;52.168;20.878;2023-08-06T07:31:51;98671.63;;;24.88;67.82
50682;BME280;36779;52.168;20.878;2023-08-06T07:34:19;98665.66;;;25.03;68.05
50682;BME280;36779;52.168;20.878;2023-08-06T07:36:47;98659.85;;;25.28;68.18
50682;BME280;36779;52.168;20.878;2023-08-06T07:39:15;98659.64;;;25.45;67.89
50682;BME280;36779;52.168;20.878;2023-08-06T07:41:44;98661.04;;;25.57;67.68
50682;BME280;36779;52.168;20.878;2023-08-06T07:44:13;98665.69;;;25.59;67.39
50682;BME280;36779;52.168;20.878;2023-08-06T07:46:41;98662.58;;;25.66;67.46
50682;BME280;36779;52.168;20.878;2023-08-06T07:49:09;98663.52;;;25.75;67.40
50682;BME280;36779;52.168;20.878;2023-08-06T07:51:38;98667.77;;;25.82;67.21
50682;BME280;36779;52.168;20.878;2023-08-06T07:54:06;98667.86;;;25.81;66.93
50682;BME280;36779;52.168;20.878;2023-08-06T07:56:34;98665.80;;;25.83;67.02
50682;BME280;36779;52.168;20.878;2023-08-06T07:59:03;98661.52;;;25.92;66.96
50682;BME280;36779;52.168;20.878;2023-08-06T08:01:31;98661.27;;;26.01;67.08
50682;BME280;36779;52.168;20.878;2023-08-06T08:03:59;98655.98;;;26.09;66.84
50682;BME280;36779;52.168;20.878;2023-08-06T08:06:27;98655.22;;;26.16;66.76
50682;BME280;36779;52.168;20.878;2023-08-06T08:08:54;98650.52;;;26.31;66.87
50682;BME280;36779;52.168;20.878;2023-08-06T08:11:22;98647.07;;;26.46;66.99
50682;BME280;36779;52.168;20.878;2023-08-06T08:13:50;98645.55;;;26.60;66.57
50682;BME280;36779;52.168;20.878;2023-08-06T08:16:18;98640.36;;;26.65;66.47
50682;BME280;36779;52.168;20.878;2023-08-06T08:18:46;98635.33;;;26.72;66.48
50682;BME280;36779;52.168;20.878;2023-08-06T08:21:15;98636.13;;;26.86;66.38
50682;BME280;36779;52.168;20.878;2023-08-06T08:23:43;98636.20;;;26.89;66.26
50682;BME280;36779;52.168;20.878;2023-08-06T08:26:11;98636.66;;;26.93;66.02
50682;BME280;36779;52.168;20.878;2023-08-06T08:28:38;98635.82;;;27.04;66.19
50682;BME280;36779;52.168;20.878;2023-08-06T08:31:08;98632.27;;;27.20;66.13
50682;BME280;36779;52.168;20.878;2023-08-06T08:33:36;98628.11;;;27.32;66.04
50682;BME280;36779;52.168;20.878;2023-08-06T08:36:04;98628.09;;;27.43;65.92
50682;BME280;36779;52.168;20.878;2023-08-06T08:38:32;98625.96;;;27.57;65.88
50682;BME280;36779;52.168;20.878;2023-08-06T08:41:00;98629.54;;;27.69;65.86
50682;BME280;36779;52.168;20.878;2023-08-06T08:43:28;98630.65;;;27.81;65.67
50682;BME280;36779;52.168;20.878;2023-08-06T08:45:57;98630.35;;;27.95;65.65
50682;BME280;36779;52.168;20.878;2023-08-06T08:48:26;98623.39;;;28.09;65.67
50682;BME280;36779;52.168;20.878;2023-08-06T08:50:54;98622.56;;;28.17;65.32
50682;BME280;36779;52.168;20.878;2023-08-06T08:53:23;98621.95;;;28.16;65.04
50682;BME280;36779;52.168;20.878;2023-08-06T08:55:51;98617.48;;;28.19;64.97
50682;BME280;36779;52.168;20.878;2023-08-06T08:58:19;98610.88;;;28.25;65.05
50682;BME280;36779;52.168;20.878;2023-08-06T09:00:49;98603.95;;;28.33;64.88
50682;BME280;36779;52.168;20.878;2023-08-06T09:03:17;98600.23;;;28.39;64.76
50682;BME280;36779;52.168;20.878;2023-08-06T09:05:45;98602.90;;;28.53;64.88
50682;BME280;36779;52.168;20.878;2023-08-06T09:08:17;98601.48;;;28.76;64.91
50682;BME280;36779;52.168;20.878;2023-08-06T09:10:45;98596.86;;;28.99;64.89
50682;BME280;36779;52.168;20.878;2023-08-06T09:13:15;98588.88;;;29.26;64.79
50682;BME280;36779;52.168;20.878;2023-08-06T09:15:43;98577.52;;;29.49;64.59
50682;BME280;36779;52.168;20.878;2023-08-06T09:18:11;98574.80;;;29.67;64.35
50682;BME280;36779;52.168;20.878;2023-08-06T09:20:39;98577.45;;;29.72;63.94
50682;BME280;36779;52.168;20.878;2023-08-06T09:23:10;98574.50;;;29.63;63.51
50682;BME280;36779;52.168;20.878;2023-08-06T09:25:38;98570.16;;;29.61;63.42
50682;BME280;36779;52.168;20.878;2023-08-06T09:28:06;98567.58;;;29.65;63.44
50682;BME280;36779;52.168;20.878;2023-08-06T09:30:35;98565.63;;;29.83;63.67
50682;BME280;36779;52.168;20.878;2023-08-06T09:33:03;98564.83;;;29.98;63.21
50682;BME280;36779;52.168;20.878;2023-08-06T09:35:35;98565.92;;;29.99;63.12
50682;BME280;36779;52.168;20.878;2023-08-06T09:38:06;98561.55;;;30.19;63.37
50682;BME280;36779;52.168;20.878;2023-08-06T09:40:34;98569.77;;;30.39;63.02
50682;BME280;36779;52.168;20.878;2023-08-06T09:43:03;98563.86;;;30.45;62.61
50682;BME280;36779;52.168;20.878;2023-08-06T09:45:34;98565.73;;;30.38;62.34
50682;BME280;36779;52.168;20.878;2023-08-06T09:48:04;98561.31;;;30.33;62.16
50682;BME280;36779;52.168;20.878;2023-08-06T09:50:32;98558.17;;;30.33;62.13
50682;BME280;36779;52.168;20.878;2023-08-06T09:53:01;98556.38;;;30.27;61.80
50682;BME280;36779;52.168;20.878;2023-08-06T09:55:29;98554.30;;;30.22;61.83
50682;BME280;36779;52.168;20.878;2023-08-06T09:57:56;98547.52;;;30.13;61.57
50682;BME280;36779;52.168;20.878;2023-08-06T10:00:25;98546.74;;;30.05;61.54
50682;BME280;36779;52.168;20.878;2023-08-06T10:02:53;98539.45;;;30.05;61.58
50682;BME280;36779;52.168;20.878;2023-08-06T10:05:23;98537.75;;;30.14;61.57
50682;BME280;36779;52.168;20.878;2023-08-06T10:07:51;98540.48;;;30.30;61.70
50682;BME280;36779;52.168;20.878;2023-08-06T10:10:19;98535.14;;;30.51;61.41
50682;BME280;36779;52.168;20.878;2023-08-06T10:12:49;98536.02;;;30.56;61.07
50682;BME280;36779;52.168;20.878;2023-08-06T10:15:19;98531.51;;;30.68;61.01
50682;BME280;36779;52.168;20.878;2023-08-06T10:17:52;98529.66;;;30.74;60.70
50682;BME280;36779;52.168;20.878;2023-08-06T10:20:20;98531.56;;;30.83;60.68
50682;BME280;36779;52.168;20.878;2023-08-06T10:23:00;98521.67;;;31.04;60.67
50682;BME280;36779;52.168;20.878;2023-08-06T10:25:30;98514.14;;;31.22;60.42
50682;BME280;36779;52.168;20.878;2023-08-06T10:27:59;98513.45;;;31.25;59.82
50682;BME280;36779;52.168;20.878;2023-08-06T10:30:28;98509.26;;;31.07;59.55
50682;BME280;36779;52.168;20.878;2023-08-06T10:32:57;98501.98;;;30.98;59.46
50682;BME280;36779;52.168;20.878;2023-08-06T10:35:30;98498.50;;;31.00;59.58
50682;BME280;36779;52.168;20.878;2023-08-06T10:37:59;98495.15;;;31.13;59.44
50682;BME280;36779;52.168;20.878;2023-08-06T10:40:27;98495.14;;;31.17;59.21
50682;BME280;36779;52.168;20.878;2023-08-06T10:42:58;98496.19;;;31.16;59.06
50682;BME280;36779;52.168;20.878;2023-08-06T10:45:26;98491.48;;;31.14;59.02
50682;BME280;36779;52.168;20.878;2023-08-06T10:47:57;98494.34;;;31.14;58.75
50682;BME280;36779;52.168;20.878;2023-08-06T10:50:25;98492.23;;;30.95;58.33
50682;BME280;36779;52.168;20.878;2023-08-06T10:52:53;98492.79;;;30.65;58.18
50682;BME280;36779;52.168;20.878;2023-08-06T10:55:25;98491.70;;;30.48;58.26
50682;BME280;36779;52.168;20.878;2023-08-06T10:57:53;98489.23;;;30.31;58.19
50682;BME280;36779;52.168;20.878;2023-08-06T11:00:21;98492.09;;;30.17;58.29
50682;BME280;36779;52.168;20.878;2023-08-06T11:02:51;98483.66;;;30.12;58.45
50682;BME280;36779;52.168;20.878;2023-08-06T11:05:19;98474.63;;;30.18;58.64
50682;BME280;36779;52.168;20.878;2023-08-06T11:07:49;98472.61;;;30.32;58.59
50682;BME280;36779;52.168;20.878;2023-08-06T11:10:18;98463.23;;;30.37;58.41
50682;BME280;36779;52.168;20.878;2023-08-06T11:12:46;98467.00;;;30.40;58.33
50682;BME280;36779;52.168;20.878;2023-08-06T11:15:17;98459.21;;;30.44;58.45
50682;BME280;36779;52.168;20.878;2023-08-06T11:17:44;98455.85;;;30.56;58.42
50682;BME280;36779;52.168;20.878;2023-08-06T11:20:12;98441.93;;;30.60;58.41
50682;BME280;36779;52.168;20.878;2023-08-06T11:22:44;98449.85;;;30.76;58.60
50682;BME280;36779;52.168;20.878;2023-08-06T11:25:12;98451.12;;;31.00;58.32
50682;BME280;36779;52.168;20.878;2023-08-06T11:27:40;98447.89;;;31.15;58.30
50682;BME280;36779;52.168;20.878;2023-08-06T11:30:09;98438.02;;;31.47;58.57
50682;BME280;36779;52.168;20.878;2023-08-06T11:32:45;98438.75;;;31.82;58.35
50682;BME280;36779;52.168;20.878;2023-08-06T11:35:15;98436.67;;;32.05;57.98
50682;BME280;36779;52.168;20.878;2023-08-06T11:37:44;98433.13;;;32.21;57.68
50682;BME280;36779;52.168;20.878;2023-08-06T11:40:13;98431.45;;;32.34;57.38
50682;BME280;36779;52.168;20.878;2023-08-06T11:42:42;98427.36;;;32.34;56.95
50682;BME280;36779;52.168;20.878;2023-08-06T11:45:10;98426.65;;;32.31;56.66
50682;BME280;36779;52.168;20.878;2023-08-06T11:47:38;98418.98;;;32.10;56.22
50682;BME280;36779;52.168;20.878;2023-08-06T11:50:08;98418.27;;;31.94;56.22
50682;BME280;36779;52.168;20.878;2023-08-06T11:52:38;98416.30;;;31.92;56.33
50682;BME280;36779;52.168;20.878;2023-08-06T11:55:07;98420.30;;;31.92;56.20
50682;BME280;36779;52.168;20.878;2023-08-06T11:57:37;98414.09;;;31.89;55.82
50682;BME280;36779;52.168;20.878;2023-08-06T12:00:09;98403.28;;;31.78;55.78
50682;BME280;36779;52.168;20.878;2023-08-06T12:02:44;98396.48;;;31.80;55.94
50682;BME280;36779;52.168;20.878;2023-08-06T12:05:12;98387.34;;;31.98;56.02
50682;BME280;36779;52.168;20.878;2023-08-06T12:07:41;98389.41;;;32.14;55.90
50682;BME280;36779;52.168;20.878;2023-08-06T12:10:09;98387.83;;;32.32;56.00
50682;BME280;36779;52.168;20.878;2023-08-06T12:12:37;98389.19;;;32.44;55.68
50682;BME280;36779;52.168;20.878;2023-08-06T12:15:07;98382.73;;;32.35;55.18
50682;BME280;36779;52.168;20.878;2023-08-06T12:17:36;98376.80;;;32.23;55.05
50682;BME280;36779;52.168;20.878;2023-08-06T12:20:05;98380.95;;;32.09;54.91
50682;BME280;36779;52.168;20.878;2023-08-06T12:22:33;98379.59;;;31.97;54.72
50682;BME280;36779;52.168;20.878;2023-08-06T12:25:03;98382.75;;;31.81;54.69
50682;BME280;36779;52.168;20.878;2023-08-06T12:27:36;98384.09;;;31.67;54.65
50682;BME280;36779;52.168;20.878;2023-08-06T12:30:05;98384.52;;;31.43;54.46
50682;BME280;36779;52.168;20.878;2023-08-06T12:32:33;98383.48;;;31.12;54.32
50682;BME280;36779;52.168;20.878;2023-08-06T12:35:02;98384.88;;;30.81;54.28
50682;BME280;36779;52.168;20.878;2023-08-06T12:37:30;98387.33;;;30.55;54.32
50682;BME280;36779;52.168;20.878;2023-08-06T12:39:57;98386.73;;;30.28;54.17
50682;BME280;36779;52.168;20.878;2023-08-06T12:42:25;98405.27;;;29.93;54.02
50682;BME280;36779;52.168;20.878;2023-08-06T12:44:53;98411.55;;;29.67;54.18
50682;BME280;36779;52.168;20.878;2023-08-06T12:47:21;98394.40;;;29.45;54.17
50682;BME280;36779;52.168;20.878;2023-08-06T12:49:49;98385.32;;;29.26;54.06
50682;BME280;36779;52.168;20.878;2023-08-06T12:52:16;98390.52;;;29.12;54.13
50682;BME280;36779;52.168;20.878;2023-08-06T12:54:46;98393.20;;;29.05;54.30
50682;BME280;36779;52.168;20.878;2023-08-06T12:57:15;98395.02;;;29.07;54.45